createdAt,value
2023-05-15T00:01:04.978Z,12.15
2023-05-15T00:03:31.561Z,12.16
2023-05-15T00:05:58.020Z,12.14
2023-05-15T00:08:24.339Z,12.22
2023-05-15T00:11:00.890Z,12.18
2023-05-15T00:13:28.097Z,12.33
2023-05-15T00:15:54.444Z,12.28
2023-05-15T00:18:20.824Z,12.21
2023-05-15T00:20:47.147Z,12.22
2023-05-15T00:23:13.477Z,12.25
2023-05-15T00:25:39.801Z,12.31
2023-05-15T00:28:06.114Z,12.19
2023-05-15T00:30:32.421Z,12.06
2023-05-15T00:32:58.787Z,12.07
2023-05-15T00:35:25.321Z,12.06
2023-05-15T00:37:51.982Z,12.11
2023-05-15T00:40:18.286Z,12.07
2023-05-15T00:42:44.596Z,11.93
2023-05-15T00:45:10.916Z,12.19
2023-05-15T00:47:37.300Z,12.21
2023-05-15T00:50:03.636Z,12.17
2023-05-15T00:52:30.035Z,12.16
2023-05-15T00:54:56.397Z,12.06
2023-05-15T00:57:22.708Z,12.07
2023-05-15T00:59:48.998Z,12.08
2023-05-15T01:02:15.358Z,12.10
2023-05-15T01:04:41.691Z,12.09
2023-05-15T01:07:08.017Z,12.05
2023-05-15T01:09:34.346Z,12.06
2023-05-15T01:12:00.676Z,12.02
2023-05-15T01:14:27.025Z,12.01
2023-05-15T01:16:53.344Z,12.06
2023-05-15T01:19:19.786Z,12.00
2023-05-15T01:21:46.177Z,12.06
2023-05-15T01:24:12.518Z,12.06
2023-05-15T01:26:38.842Z,12.03
2023-05-15T01:29:05.168Z,12.01
2023-05-15T01:31:31.530Z,11.94
2023-05-15T01:33:57.865Z,12.04
2023-05-15T01:36:24.183Z,12.02
2023-05-15T01:38:50.512Z,12.02
2023-05-15T01:41:16.842Z,12.02
2023-05-15T01:43:43.172Z,12.05
2023-05-15T01:46:09.577Z,12.06
2023-05-15T01:48:35.939Z,12.04
2023-05-15T01:51:02.269Z,12.09
2023-05-15T01:53:28.577Z,12.11
2023-05-15T01:55:54.900Z,12.08
2023-05-15T01:58:21.219Z,12.08
2023-05-15T02:00:47.530Z,12.02
2023-05-15T02:03:13.909Z,12.01
2023-05-15T02:05:40.287Z,12.02
2023-05-15T02:08:06.614Z,12.01
2023-05-15T02:10:32.947Z,11.99
2023-05-15T02:12:59.258Z,11.96
2023-05-15T02:15:25.809Z,11.85
2023-05-15T02:17:52.340Z,11.86
2023-05-15T02:20:18.707Z,11.85
2023-05-15T02:22:45.072Z,11.85
2023-05-15T02:25:11.397Z,11.84
2023-05-15T02:27:37.716Z,11.84
2023-05-15T02:30:04.043Z,11.84
2023-05-15T02:32:30.456Z,11.80
2023-05-15T02:34:56.788Z,11.88
2023-05-15T02:37:23.118Z,11.89
2023-05-15T02:39:49.460Z,11.90
2023-05-15T02:42:15.782Z,11.91
2023-05-15T02:44:42.103Z,11.96
2023-05-15T02:47:08.442Z,12.05
2023-05-15T02:49:34.741Z,11.95
2023-05-15T02:52:01.064Z,12.05
2023-05-15T02:54:27.378Z,12.05
2023-05-15T02:56:53.713Z,11.94
2023-05-15T02:59:20.079Z,12.06
2023-05-15T03:01:46.430Z,11.98
2023-05-15T03:04:12.795Z,11.94
2023-05-15T03:06:39.137Z,11.92
2023-05-15T03:09:05.465Z,11.90
2023-05-15T03:11:31.766Z,11.86
2023-05-15T03:13:58.077Z,11.80
2023-05-15T03:16:24.418Z,11.82
2023-05-15T03:18:50.809Z,11.84
2023-05-15T03:21:17.146Z,11.81
2023-05-15T03:23:43.462Z,11.83
2023-05-15T03:26:09.774Z,11.82
2023-05-15T03:28:36.081Z,11.83
2023-05-15T03:31:02.415Z,11.83
2023-05-15T03:33:28.747Z,11.77
2023-05-15T03:35:55.065Z,11.78
2023-05-15T03:38:21.391Z,11.71
2023-05-15T03:40:50.257Z,11.68
2023-05-15T03:43:17.361Z,11.72
2023-05-15T03:45:43.681Z,11.72
2023-05-15T03:48:10.013Z,11.75
2023-05-15T03:50:36.337Z,11.76
2023-05-15T03:53:02.643Z,11.75
2023-05-15T03:55:28.971Z,11.67
2023-05-15T03:57:55.296Z,11.68
2023-05-15T04:00:21.621Z,11.63
2023-05-15T04:02:47.998Z,11.67
2023-05-15T04:05:14.397Z,11.61
2023-05-15T04:07:40.731Z,11.58
2023-05-15T04:10:07.062Z,11.54
2023-05-15T04:12:33.399Z,11.45
2023-05-15T04:14:59.712Z,11.45
2023-05-15T04:17:26.097Z,11.44
2023-05-15T04:19:52.411Z,11.46
2023-05-15T04:22:18.739Z,11.49
2023-05-15T04:24:45.073Z,11.49
2023-05-15T04:27:11.571Z,11.52
2023-05-15T04:29:37.909Z,11.51
2023-05-15T04:32:04.389Z,11.53
2023-05-15T04:34:30.787Z,11.48
2023-05-15T04:36:57.106Z,11.54
2023-05-15T04:39:23.406Z,11.55
2023-05-15T04:41:49.733Z,11.59
2023-05-15T04:44:16.076Z,11.65
2023-05-15T04:46:42.407Z,11.65
2023-05-15T04:49:08.740Z,11.69
2023-05-15T04:51:35.069Z,11.72
2023-05-15T04:54:01.397Z,11.73
2023-05-15T04:56:27.721Z,11.70
2023-05-15T04:58:54.037Z,11.69
2023-05-15T05:01:20.374Z,11.70
2023-05-15T05:03:46.793Z,11.67
2023-05-15T05:06:13.158Z,11.79
2023-05-15T05:08:39.475Z,11.78
2023-05-15T05:11:05.801Z,11.80
2023-05-15T05:13:32.124Z,11.84
2023-05-15T05:15:58.482Z,11.88
2023-05-15T05:18:24.803Z,11.89
2023-05-15T05:20:51.124Z,11.90
2023-05-15T05:23:17.451Z,11.95
2023-05-15T05:25:43.771Z,11.93
2023-05-15T05:28:10.099Z,11.97
2023-05-15T05:30:36.417Z,12.04
2023-05-15T05:33:02.745Z,12.03
2023-05-15T05:35:29.088Z,12.05
2023-05-15T05:37:55.388Z,12.05
2023-05-15T05:40:21.699Z,12.12
2023-05-15T05:42:48.016Z,12.18
2023-05-15T05:45:14.355Z,12.25
2023-05-15T05:47:40.733Z,12.30
2023-05-15T05:50:07.056Z,12.31
2023-05-15T05:52:33.386Z,12.36
2023-05-15T05:54:59.700Z,12.34
2023-05-15T05:57:26.025Z,12.42
2023-05-15T05:59:52.329Z,12.64
2023-05-15T06:02:18.721Z,12.62
2023-05-15T06:04:45.095Z,12.64
2023-05-15T06:07:11.409Z,12.50
2023-05-15T06:09:37.723Z,12.46
2023-05-15T06:12:04.034Z,12.54
2023-05-15T06:14:30.366Z,12.60
2023-05-15T06:16:56.699Z,12.58
2023-05-15T06:19:23.046Z,12.58
2023-05-15T06:21:49.415Z,12.62
2023-05-15T06:24:15.725Z,12.66
2023-05-15T06:26:42.043Z,12.68
2023-05-15T06:29:08.385Z,12.70
2023-05-15T06:31:34.760Z,12.75
2023-05-15T06:34:01.111Z,12.74
2023-05-15T06:36:27.429Z,12.86
2023-05-15T06:38:53.744Z,12.89
2023-05-15T06:41:20.073Z,12.91
2023-05-15T06:43:46.389Z,12.96
2023-05-15T06:46:12.962Z,12.97
2023-05-15T06:48:39.353Z,12.98
2023-05-15T06:51:05.677Z,13.13
2023-05-15T06:53:31.998Z,13.19
2023-05-15T06:55:58.311Z,13.31
2023-05-15T06:58:24.636Z,13.35
2023-05-15T11:45:21.513Z,17.07
2023-05-15T11:47:47.873Z,17.23
2023-05-15T11:50:14.212Z,17.26
2023-05-15T11:52:40.536Z,17.28
2023-05-15T11:55:06.850Z,17.41
2023-05-15T11:57:33.180Z,17.27
2023-05-15T11:59:59.506Z,17.14
2023-05-15T12:02:25.866Z,17.04
2023-05-15T12:04:52.384Z,17.10
2023-05-15T12:07:18.749Z,16.91
2023-05-15T12:09:45.095Z,17.01
2023-05-15T12:12:11.401Z,17.12
2023-05-15T12:14:37.709Z,17.13
2023-05-15T12:17:04.041Z,17.16
2023-05-15T12:19:30.365Z,17.27
2023-05-15T12:21:56.692Z,17.23
2023-05-15T12:24:23.037Z,17.27
2023-05-15T12:26:49.346Z,17.17
2023-05-15T12:29:15.669Z,17.20
2023-05-15T12:31:42.046Z,17.29
2023-05-15T12:34:08.425Z,17.57
2023-05-15T12:36:34.742Z,17.59
2023-05-15T12:39:01.085Z,17.78
2023-05-15T12:41:27.439Z,18.02
2023-05-15T12:43:53.790Z,18.21
2023-05-15T12:46:20.205Z,18.38
2023-05-15T12:48:46.554Z,18.58
2023-05-15T12:51:12.865Z,18.76
2023-05-15T12:53:39.211Z,18.92
2023-05-15T12:56:05.598Z,19.01
2023-05-15T12:58:31.915Z,18.79
2023-05-15T13:00:58.267Z,18.90
2023-05-15T13:03:24.662Z,19.00
2023-05-15T13:05:50.990Z,18.86
2023-05-15T13:08:17.303Z,18.93
2023-05-15T13:10:43.653Z,19.04
2023-05-15T13:13:09.996Z,19.10
2023-05-15T13:15:36.386Z,19.32
2023-05-15T13:18:02.781Z,19.35
2023-05-15T13:20:29.189Z,19.37
2023-05-15T13:22:55.495Z,19.31
2023-05-15T13:25:21.840Z,19.13
2023-05-15T13:27:48.187Z,19.09
2023-05-15T13:30:14.623Z,18.99
2023-05-15T13:32:40.992Z,18.81
2023-05-15T13:35:07.322Z,18.80
2023-05-15T13:37:33.647Z,18.70
2023-05-15T13:40:00.030Z,18.65
2023-05-15T13:42:26.352Z,18.57
2023-05-15T13:44:52.675Z,18.52
2023-05-15T13:47:19.090Z,18.73
2023-05-15T13:49:45.426Z,18.79
2023-05-15T13:52:11.756Z,18.70
2023-05-15T13:54:38.080Z,18.48
2023-05-15T13:57:04.408Z,18.40
2023-05-15T13:59:30.740Z,18.27
2023-05-15T14:01:57.092Z,18.27
2023-05-15T14:04:23.543Z,18.21
2023-05-15T14:06:49.910Z,18.14
2023-05-15T14:09:16.234Z,18.25
2023-05-15T14:11:42.807Z,18.20
2023-05-15T14:14:09.141Z,18.33
2023-05-15T14:16:35.514Z,18.46
2023-05-15T14:19:01.891Z,18.51
2023-05-15T14:21:28.229Z,18.62
2023-05-15T14:23:54.529Z,18.88
2023-05-15T14:26:20.849Z,19.03
2023-05-15T14:28:47.193Z,19.06
2023-05-15T14:31:13.567Z,19.40
2023-05-15T14:36:06.148Z,19.34
2023-05-15T14:38:32.488Z,18.98
2023-05-15T14:40:58.826Z,18.57
2023-05-15T14:43:25.146Z,18.38
2023-05-15T14:45:51.547Z,18.17
2023-05-15T14:48:17.892Z,18.02
2023-05-15T14:50:44.204Z,17.63
2023-05-15T14:53:10.522Z,17.48
2023-05-15T14:55:36.860Z,17.36
2023-05-15T14:58:03.196Z,17.39
2023-05-15T15:00:29.554Z,17.53
2023-05-15T15:02:55.985Z,17.57
2023-05-15T15:05:22.391Z,17.59
2023-05-15T15:07:48.690Z,17.57
2023-05-15T15:10:14.997Z,17.60
2023-05-15T15:12:41.306Z,17.60
2023-05-15T15:15:07.612Z,17.68
2023-05-15T15:17:33.956Z,17.61
2023-05-15T15:20:00.350Z,17.59
2023-05-15T15:22:26.655Z,17.59
2023-05-15T15:24:52.997Z,17.61
2023-05-15T15:27:19.334Z,17.54
2023-05-15T15:29:45.662Z,17.58
2023-05-15T15:32:12.050Z,17.43
2023-05-15T15:34:38.436Z,17.43
2023-05-15T15:37:04.757Z,17.41
2023-05-15T15:39:31.061Z,17.36
2023-05-15T15:41:57.369Z,17.25
2023-05-15T15:44:23.693Z,17.28
2023-05-15T15:46:50.010Z,17.16
2023-05-15T15:49:16.368Z,17.12
2023-05-15T15:51:42.735Z,17.29
2023-05-15T15:54:09.106Z,17.25
2023-05-15T15:56:35.438Z,17.04
2023-05-15T15:59:01.748Z,17.02
2023-05-15T16:01:28.108Z,17.05
2023-05-15T16:03:54.530Z,17.05
2023-05-15T16:06:20.867Z,16.92
2023-05-15T16:08:47.187Z,16.95
2023-05-15T16:11:13.536Z,16.87
2023-05-15T16:13:41.074Z,16.68
2023-05-15T16:16:07.635Z,16.50
2023-05-15T16:18:33.993Z,16.47
2023-05-15T16:21:00.329Z,16.42
2023-05-15T16:23:26.637Z,16.47
2023-05-15T16:25:52.965Z,16.29
2023-05-15T16:28:19.285Z,16.12
2023-05-15T16:30:49.452Z,15.80
2023-05-15T16:33:16.214Z,15.66
2023-05-15T16:35:42.579Z,15.73
2023-05-15T16:38:08.922Z,15.63
2023-05-15T16:40:35.261Z,15.68
2023-05-15T16:43:01.580Z,15.42
2023-05-15T16:45:27.905Z,15.47
2023-05-15T16:47:54.290Z,15.38
2023-05-15T16:50:20.733Z,15.31
2023-05-15T16:52:47.109Z,15.23
2023-05-15T16:55:13.496Z,15.25
2023-05-15T16:57:39.805Z,15.16
2023-05-15T17:00:06.129Z,15.02
2023-05-15T17:02:32.525Z,14.98
2023-05-15T17:04:58.905Z,14.95
2023-05-15T17:07:25.228Z,14.85
2023-05-15T17:09:51.543Z,14.81
2023-05-15T17:12:17.856Z,14.76
2023-05-15T17:14:44.175Z,14.88
2023-05-15T17:17:10.487Z,14.99
2023-05-15T17:19:36.811Z,14.90
2023-05-15T17:22:03.111Z,14.74
2023-05-15T17:24:38.823Z,14.80
2023-05-15T17:27:15.699Z,14.69
2023-05-15T17:29:42.061Z,14.71
2023-05-15T17:32:08.482Z,14.70
2023-05-15T17:34:34.901Z,14.66
2023-05-15T17:37:01.248Z,14.69
2023-05-15T17:39:27.555Z,14.69
2023-05-15T17:41:53.878Z,14.56
2023-05-15T17:44:20.209Z,14.69
2023-05-15T17:46:46.520Z,14.63
2023-05-15T17:49:12.832Z,14.53
2023-05-15T17:51:39.138Z,14.50
2023-05-15T17:54:05.491Z,14.46
2023-05-15T17:56:31.803Z,14.53
2023-05-15T17:58:58.114Z,14.55
2023-05-15T18:01:24.492Z,14.52
2023-05-15T18:03:50.834Z,14.45
2023-05-15T18:06:17.152Z,14.48
2023-05-15T18:08:43.471Z,14.47
2023-05-15T18:11:21.525Z,14.45
2023-05-15T18:13:48.951Z,14.44
2023-05-15T18:16:15.320Z,14.38
2023-05-15T18:18:41.670Z,14.31
2023-05-15T18:21:08.021Z,14.32
2023-05-15T18:23:34.360Z,14.19
2023-05-15T18:26:00.710Z,14.18
2023-05-15T18:28:27.032Z,14.25
2023-05-15T18:30:53.338Z,14.22
2023-05-15T18:33:19.671Z,14.26
2023-05-15T18:35:45.973Z,14.26
2023-05-15T18:38:12.308Z,14.29
2023-05-15T18:40:38.650Z,14.33
2023-05-15T18:43:04.970Z,14.35
2023-05-15T18:45:31.284Z,14.18
2023-05-15T18:47:57.621Z,14.18
2023-05-15T18:50:23.988Z,14.24
2023-05-15T18:52:50.320Z,14.24
2023-05-15T18:55:16.636Z,14.17
2023-05-15T18:57:42.958Z,14.06
2023-05-15T19:00:09.278Z,14.07
2023-05-15T19:02:35.619Z,14.08
2023-05-15T19:05:01.967Z,13.88
2023-05-15T19:07:28.290Z,13.95
2023-05-15T19:09:54.617Z,14.00
2023-05-15T19:12:20.934Z,14.05
2023-05-15T19:14:47.268Z,13.93
2023-05-15T19:17:13.630Z,13.89
2023-05-15T19:19:39.941Z,13.80
2023-05-15T19:22:06.284Z,13.79
2023-05-15T19:24:33.631Z,13.76
2023-05-15T19:27:00.090Z,13.75
2023-05-15T19:29:26.459Z,13.78
2023-05-15T19:31:52.809Z,13.78
2023-05-15T19:34:19.138Z,13.71
2023-05-15T19:36:45.443Z,13.67
2023-05-15T19:39:11.772Z,13.63
2023-05-15T19:41:38.114Z,13.60
2023-05-15T19:44:04.546Z,13.63
2023-05-15T19:46:30.988Z,13.62
2023-05-15T19:48:57.346Z,13.58
2023-05-15T19:51:23.650Z,13.56
2023-05-15T19:53:49.983Z,13.59
2023-05-15T19:56:16.296Z,13.60
2023-05-15T19:58:42.621Z,13.67
2023-05-15T20:01:09.008Z,13.59
2023-05-15T20:03:35.718Z,13.60
2023-05-15T20:06:02.127Z,13.56
2023-05-15T20:08:28.469Z,13.45
2023-05-15T20:10:54.776Z,13.49
2023-05-15T20:13:21.119Z,13.56
2023-05-15T20:15:47.462Z,13.59
2023-05-15T20:18:13.908Z,13.62
2023-05-15T20:20:40.249Z,13.58
2023-05-15T20:23:06.567Z,13.57
2023-05-15T20:25:32.883Z,13.52
2023-05-15T20:27:59.221Z,13.49
2023-05-15T20:30:25.621Z,13.41
2023-05-15T20:32:52.095Z,13.40
2023-05-15T20:35:18.505Z,13.37
2023-05-15T20:37:44.835Z,13.33
2023-05-15T20:40:11.157Z,13.29
2023-05-15T20:42:37.481Z,13.22
2023-05-15T20:45:03.812Z,13.19
2023-05-15T20:47:30.196Z,13.23
2023-05-15T20:49:56.505Z,13.19
2023-05-15T20:52:22.855Z,13.24
2023-05-15T20:54:49.167Z,13.16
2023-05-15T20:57:15.474Z,13.16
2023-05-15T20:59:41.811Z,13.16
2023-05-15T21:02:08.138Z,13.11
2023-05-15T21:04:34.449Z,13.18
2023-05-15T21:07:00.773Z,13.08
2023-05-15T21:09:27.117Z,13.07
2023-05-15T21:11:53.438Z,13.05
2023-05-15T21:14:19.763Z,13.01
2023-05-15T21:16:46.103Z,13.00
2023-05-15T21:19:12.456Z,12.97
2023-05-15T21:21:38.843Z,12.90
2023-05-15T21:24:05.153Z,12.80
2023-05-15T21:26:31.485Z,12.83
2023-05-15T21:28:57.792Z,12.79
2023-05-15T21:31:24.132Z,12.80
2023-05-15T21:33:50.477Z,12.82
2023-05-15T21:36:16.804Z,12.80
2023-05-15T21:38:43.129Z,12.70
2023-05-15T21:41:09.441Z,12.68
2023-05-15T21:43:35.757Z,12.76
2023-05-15T21:46:02.099Z,12.74
2023-05-15T21:48:28.502Z,12.83
2023-05-15T21:50:54.826Z,12.76
2023-05-15T21:53:21.154Z,12.76
2023-05-15T21:55:47.464Z,12.84
2023-05-15T21:58:13.786Z,12.81
2023-05-15T22:00:40.111Z,12.82
2023-05-15T22:03:06.539Z,12.90
2023-05-15T22:05:32.892Z,12.92
2023-05-15T22:07:59.210Z,12.97
2023-05-15T22:10:25.697Z,12.90
2023-05-15T22:12:52.192Z,12.93
2023-05-15T22:15:18.588Z,12.94
2023-05-15T22:17:44.922Z,12.86
2023-05-15T22:20:11.262Z,12.89
2023-05-15T22:22:37.596Z,12.89
2023-05-15T22:25:03.910Z,12.91
2023-05-15T22:27:30.237Z,12.96
2023-05-15T22:29:56.549Z,12.87
2023-05-15T22:32:22.914Z,12.78
2023-05-15T22:34:49.254Z,12.80
2023-05-15T22:37:15.560Z,12.75
2023-05-15T22:39:41.893Z,12.81
2023-05-15T22:42:08.213Z,12.81
2023-05-15T22:44:34.532Z,12.75
2023-05-15T22:47:00.859Z,12.83
2023-05-15T22:49:27.177Z,12.78
2023-05-15T22:51:53.498Z,12.75
2023-05-15T22:54:19.807Z,12.75
2023-05-15T22:56:46.657Z,12.77
2023-05-15T22:59:12.979Z,12.82
2023-05-15T23:01:39.348Z,12.76
2023-05-15T23:04:05.781Z,12.77
2023-05-15T23:06:32.149Z,12.74
2023-05-15T23:08:58.461Z,12.73
2023-05-15T23:11:24.775Z,12.77
2023-05-15T23:13:51.097Z,12.78
2023-05-15T23:16:17.467Z,12.85
2023-05-15T23:18:43.880Z,12.75
2023-05-15T23:21:10.213Z,12.81
2023-05-15T23:23:36.553Z,12.81
2023-05-15T23:26:02.881Z,12.79
2023-05-15T23:28:29.198Z,12.70
2023-05-15T23:30:55.588Z,12.77
2023-05-15T23:33:21.957Z,12.74
2023-05-15T23:35:48.274Z,12.80
2023-05-15T23:38:14.599Z,12.75
2023-05-15T23:40:40.918Z,12.71
2023-05-15T23:43:07.255Z,12.75
2023-05-15T23:45:33.652Z,12.76
2023-05-15T23:48:00.126Z,12.85
2023-05-15T23:50:26.843Z,12.84
2023-05-15T23:52:53.370Z,12.80
2023-05-15T23:55:19.694Z,12.81
2023-05-15T23:57:46.029Z,12.75
